createdAt,value
2023-01-08T00:01:39.803Z,-0.67
2023-01-08T00:04:08.507Z,-0.80
2023-01-08T00:06:37.614Z,-0.78
2023-01-08T00:09:07.272Z,-0.66
2023-01-08T00:11:35.860Z,-0.57
2023-01-08T00:14:04.499Z,-0.44
2023-01-08T00:16:33.367Z,-0.49
2023-01-08T00:19:01.712Z,-0.68
2023-01-08T00:21:30.800Z,-0.82
2023-01-08T00:23:59.375Z,-0.90
2023-01-08T00:26:29.012Z,-0.94
2023-01-08T00:28:57.922Z,-0.77
2023-01-08T00:31:26.577Z,-0.87
2023-01-08T00:33:55.165Z,-0.95
2023-01-08T00:36:23.742Z,-1.00
2023-01-08T00:38:52.342Z,-1.06
2023-01-08T00:41:21.003Z,-1.18
2023-01-08T00:43:50.955Z,-1.24
2023-01-08T00:46:19.651Z,-1.27
2023-01-08T00:48:48.329Z,-1.26
2023-01-08T00:51:16.657Z,-1.31
2023-01-08T00:53:45.228Z,-1.28
2023-01-08T00:56:13.913Z,-1.19
2023-01-08T00:58:42.500Z,-1.22
2023-01-08T01:01:13.853Z,-1.32
2023-01-08T01:03:43.186Z,-1.25
2023-01-08T01:06:13.412Z,-1.29
2023-01-08T01:08:42.242Z,-1.00
2023-01-08T01:11:11.656Z,-0.76
2023-01-08T01:13:40.289Z,-0.70
2023-01-08T01:16:09.720Z,-0.67
2023-01-08T01:18:39.486Z,-0.65
2023-01-08T01:21:13.093Z,-0.58
2023-01-08T01:23:41.878Z,-0.57
2023-01-08T01:26:17.455Z,-0.74
2023-01-08T01:28:48.111Z,-0.73
2023-01-08T01:31:16.720Z,-0.76
2023-01-08T01:33:47.523Z,-0.92
2023-01-08T01:36:18.152Z,-1.09
2023-01-08T01:38:47.946Z,-1.09
2023-01-08T01:41:26.319Z,-1.19
2023-01-08T01:43:56.433Z,-1.34
2023-01-08T01:46:36.954Z,-1.43
2023-01-08T01:49:11.647Z,-1.43
2023-01-08T01:51:48.804Z,-1.50
2023-01-08T01:54:18.939Z,-1.26
2023-01-08T01:56:48.237Z,-1.20
2023-01-08T01:59:17.495Z,-1.07
2023-01-08T02:01:46.857Z,-1.06
2023-01-08T02:04:17.051Z,-1.14
2023-01-08T02:06:51.888Z,-1.22
2023-01-08T02:09:34.085Z,-1.33
2023-01-08T02:12:18.436Z,-1.22
2023-01-08T02:15:06.664Z,-1.30
2023-01-08T02:17:45.519Z,-1.42
2023-01-08T02:20:19.847Z,-1.61
2023-01-08T02:23:13.468Z,-1.68
2023-01-08T02:26:13.596Z,-1.66
2023-01-08T02:28:48.279Z,-1.94
2023-01-08T02:31:18.862Z,-1.94
2023-01-08T02:33:47.426Z,-1.92
2023-01-08T02:36:36.629Z,-1.81
2023-01-08T02:39:35.178Z,-1.78
2023-01-08T02:42:17.101Z,-1.83
2023-01-08T02:44:59.019Z,-1.93
2023-01-08T02:47:33.579Z,-1.93
2023-01-08T02:50:20.808Z,-1.88
2023-01-08T02:53:02.704Z,-1.76
2023-01-08T02:55:34.411Z,-1.70
2023-01-08T02:58:06.259Z,-1.72
2023-01-08T03:00:35.828Z,-1.68
2023-01-08T03:03:10.874Z,-1.67
2023-01-08T03:05:42.857Z,-1.72
2023-01-08T03:08:12.870Z,-1.71
2023-01-08T03:10:46.442Z,-1.67
2023-01-08T03:13:22.688Z,-1.40
2023-01-08T03:15:57.333Z,-1.51
2023-01-08T03:18:36.038Z,-1.46
2023-01-08T03:21:07.756Z,-1.43
2023-01-08T03:23:39.974Z,-1.49
2023-01-08T03:26:10.421Z,-1.53
2023-01-08T03:28:46.456Z,-1.40
2023-01-08T03:31:18.561Z,-1.39
2023-01-08T03:33:49.089Z,-1.29
2023-01-08T03:36:23.251Z,-1.32
2023-01-08T03:39:00.517Z,-1.46
2023-01-08T03:41:33.726Z,-1.31
2023-01-08T03:44:04.449Z,-1.11
2023-01-08T03:46:36.997Z,-1.23
2023-01-08T03:49:09.006Z,-1.37
2023-01-08T03:51:41.850Z,-1.52
2023-01-08T03:54:14.277Z,-1.72
2023-01-08T03:56:42.806Z,-1.59
2023-01-08T03:59:13.966Z,-1.44
2023-01-08T04:01:42.872Z,-1.44
2023-01-08T04:04:12.816Z,-1.52
2023-01-08T04:06:41.367Z,-1.51
2023-01-08T04:09:09.867Z,-1.55
2023-01-08T04:11:38.730Z,-1.59
2023-01-08T04:14:07.281Z,-1.46
2023-01-08T04:16:36.948Z,-1.36
2023-01-08T04:19:05.436Z,-1.26
2023-01-08T04:21:34.093Z,-1.11
2023-01-08T04:24:02.296Z,-1.01
2023-01-08T04:26:31.117Z,-1.02
2023-01-08T04:28:59.735Z,-1.04
2023-01-08T04:31:28.306Z,-1.01
2023-01-08T04:33:57.981Z,-1.00
2023-01-08T04:36:26.631Z,-1.01
2023-01-08T04:38:55.180Z,-1.04
2023-01-08T04:41:23.710Z,-1.07
2023-01-08T04:43:51.934Z,-1.03
2023-01-08T04:46:20.519Z,-1.02
2023-01-08T04:48:48.726Z,-0.92
2023-01-08T04:51:18.315Z,-0.84
2023-01-08T04:53:46.879Z,-0.85
2023-01-08T04:56:15.398Z,-0.94
2023-01-08T04:58:43.944Z,-0.90
2023-01-08T05:01:14.502Z,-0.76
2023-01-08T05:03:43.051Z,-0.65
2023-01-08T05:06:11.549Z,-0.58
2023-01-08T05:08:41.132Z,-0.55
2023-01-08T05:11:09.602Z,-0.56
2023-01-08T05:13:38.129Z,-0.67
2023-01-08T05:16:06.940Z,-0.65
2023-01-08T05:18:35.519Z,-0.76
2023-01-08T05:21:05.957Z,-0.65
2023-01-08T05:23:35.971Z,-0.64
2023-01-08T05:26:07.589Z,-0.67
2023-01-08T05:28:36.437Z,-0.68
2023-01-08T05:31:05.975Z,-0.76
2023-01-08T05:33:34.515Z,-0.83
2023-01-08T05:36:05.595Z,-0.78
2023-01-08T05:38:33.773Z,-0.86
2023-01-08T05:41:02.308Z,-0.98
2023-01-08T05:43:31.988Z,-0.94
2023-01-08T05:46:01.005Z,-1.00
2023-01-08T05:48:30.484Z,-1.01
2023-01-08T05:50:59.054Z,-1.00
2023-01-08T05:53:27.681Z,-1.05
2023-01-08T05:56:01.385Z,-1.05
2023-01-08T05:58:32.351Z,-1.14
2023-01-08T06:01:06.006Z,-1.21
2023-01-08T06:03:34.190Z,-1.20
2023-01-08T06:06:04.080Z,-1.13
2023-01-08T06:08:33.543Z,-1.11
2023-01-08T06:11:02.581Z,-1.13
2023-01-08T06:13:32.358Z,-1.11
2023-01-08T06:16:03.265Z,-1.09
2023-01-08T06:18:32.085Z,-1.03
2023-01-08T06:21:00.436Z,-1.14
2023-01-08T06:23:28.982Z,-1.13
2023-01-08T06:26:00.959Z,-1.11
2023-01-08T06:28:29.267Z,-1.08
2023-01-08T06:31:01.302Z,-1.08
2023-01-08T06:33:30.341Z,-1.14
2023-01-08T06:36:02.289Z,-1.18
2023-01-08T06:38:33.574Z,-1.23
2023-01-08T06:41:05.869Z,-1.33
2023-01-08T06:43:36.400Z,-1.31
2023-01-08T06:46:06.917Z,-1.26
2023-01-08T06:48:35.888Z,-1.21
2023-01-08T06:51:06.248Z,-1.28
2023-01-08T06:53:34.808Z,-1.24
2023-01-08T06:56:07.482Z,-1.20
2023-01-08T06:58:35.777Z,-1.12
2023-01-08T07:01:05.764Z,-1.13
2023-01-08T07:03:34.331Z,-1.09
2023-01-08T07:06:04.477Z,-0.97
2023-01-08T07:08:33.015Z,-0.89
2023-01-08T07:11:04.506Z,-0.89
2023-01-08T07:13:33.124Z,-0.74
2023-01-08T07:16:08.426Z,-0.69
2023-01-08T07:18:37.161Z,-0.66
2023-01-08T07:21:09.795Z,-0.65
2023-01-08T07:23:38.980Z,-0.57
2023-01-08T07:26:08.764Z,-0.49
2023-01-08T07:28:37.396Z,-0.44
2023-01-08T07:31:08.069Z,-0.41
2023-01-08T07:33:36.963Z,-0.43
2023-01-08T07:36:07.927Z,-0.47
2023-01-08T07:38:36.451Z,-0.45
2023-01-08T07:41:05.065Z,-0.43
2023-01-08T07:43:35.262Z,-0.49
2023-01-08T07:46:04.503Z,-0.51
2023-01-08T07:48:34.707Z,-0.51
2023-01-08T07:51:03.995Z,-0.48
2023-01-08T07:53:32.340Z,-0.43
2023-01-08T07:56:01.664Z,-0.40
2023-01-08T07:58:29.965Z,-0.37
2023-01-08T08:00:59.455Z,-0.33
2023-01-08T08:03:28.441Z,-0.24
2023-01-08T08:05:58.024Z,-0.13
2023-01-08T08:08:26.253Z,-0.12
2023-01-08T08:10:54.848Z,0.01
2023-01-08T08:13:23.523Z,0.14
2023-01-08T08:15:52.231Z,0.21
2023-01-08T08:18:21.007Z,0.21
2023-01-08T08:20:52.031Z,0.27
2023-01-08T08:23:22.025Z,0.34
2023-01-08T08:25:51.879Z,0.44
2023-01-08T08:28:20.477Z,0.34
2023-01-08T08:30:48.812Z,0.35
2023-01-08T08:33:17.392Z,0.43
2023-01-08T08:35:51.115Z,0.49
2023-01-08T08:38:23.164Z,0.50
2023-01-08T08:40:52.235Z,0.57
2023-01-08T08:43:20.759Z,0.58
2023-01-08T08:45:48.998Z,0.52
2023-01-08T08:48:17.731Z,0.52
2023-01-08T08:50:46.863Z,0.51
2023-01-08T08:53:15.176Z,0.53
2023-01-08T08:55:44.674Z,0.66
2023-01-08T08:58:14.694Z,0.80
2023-01-08T09:00:44.525Z,0.87
2023-01-08T09:03:15.311Z,1.00
2023-01-08T09:05:44.439Z,1.00
2023-01-08T09:08:13.694Z,1.05
2023-01-08T09:10:43.856Z,1.14
2023-01-08T09:13:12.623Z,1.17
2023-01-08T09:15:41.084Z,1.17
2023-01-08T09:18:09.769Z,1.24
2023-01-08T09:20:38.553Z,1.31
2023-01-08T09:23:07.155Z,1.44
2023-01-08T09:25:35.783Z,1.44
2023-01-08T09:28:09.809Z,1.48
2023-01-08T09:30:38.275Z,1.47
2023-01-08T09:33:07.663Z,1.56
2023-01-08T09:35:36.137Z,1.67
2023-01-08T09:38:04.375Z,1.88
2023-01-08T09:40:39.460Z,1.87
2023-01-08T09:43:16.783Z,1.94
2023-01-08T09:45:49.828Z,2.06
2023-01-08T09:48:23.047Z,2.16
2023-01-08T09:50:51.293Z,2.34
2023-01-08T09:53:20.919Z,2.50
2023-01-08T09:56:09.166Z,2.75
2023-01-08T09:58:42.535Z,2.97
2023-01-08T10:01:16.041Z,3.14
2023-01-08T10:03:48.302Z,3.26
2023-01-08T10:06:18.547Z,3.35
2023-01-08T10:08:47.382Z,3.42
2023-01-08T10:11:16.934Z,3.38
2023-01-08T10:13:53.322Z,3.42
2023-01-08T10:16:31.253Z,3.41
2023-01-08T10:19:01.779Z,3.26
2023-01-08T10:21:33.063Z,3.46
2023-01-08T10:24:01.311Z,3.76
2023-01-08T10:26:33.318Z,3.69
2023-01-08T10:29:17.161Z,3.75
2023-01-08T10:31:52.147Z,3.56
2023-01-08T10:34:29.317Z,3.15
2023-01-08T10:36:58.199Z,3.11
2023-01-08T10:39:29.761Z,3.09
2023-01-08T10:42:07.486Z,3.11
2023-01-08T10:44:37.947Z,3.40
2023-01-08T10:47:07.368Z,3.55
2023-01-08T10:49:41.907Z,3.75
2023-01-08T10:52:25.110Z,3.57
2023-01-08T10:54:54.044Z,3.44
2023-01-08T10:57:26.503Z,3.25
2023-01-08T10:59:57.422Z,3.43
2023-01-08T11:02:38.602Z,3.73
2023-01-08T11:05:11.413Z,3.91
2023-01-08T11:07:41.229Z,3.54
2023-01-08T11:10:24.632Z,3.63
2023-01-08T11:12:58.840Z,3.67
2023-01-08T11:15:38.843Z,3.57
2023-01-08T11:18:23.865Z,3.43
2023-01-08T11:20:54.801Z,3.45
2023-01-08T11:23:26.571Z,3.34
2023-01-08T11:26:08.104Z,3.39
2023-01-08T11:28:51.847Z,3.25
2023-01-08T11:31:34.324Z,3.43
2023-01-08T11:34:16.667Z,3.51
2023-01-08T11:36:52.265Z,3.62
2023-01-08T11:39:20.989Z,3.52
2023-01-08T11:42:12.532Z,3.34
2023-01-08T11:44:57.374Z,3.39
2023-01-08T11:47:48.713Z,3.24
2023-01-08T11:50:25.833Z,3.30
2023-01-08T11:53:15.950Z,3.19
2023-01-08T11:55:58.556Z,3.16
2023-01-08T11:58:49.247Z,2.96
2023-01-08T12:01:29.481Z,2.88
2023-01-08T12:04:27.971Z,2.89
2023-01-08T12:07:11.350Z,2.88
2023-01-08T12:09:45.865Z,2.90
2023-01-08T12:12:41.152Z,3.00
2023-01-08T12:15:20.786Z,3.04
2023-01-08T12:18:24.357Z,2.96
2023-01-08T12:21:05.222Z,2.99
2023-01-08T12:24:00.507Z,3.01
2023-01-08T12:26:35.846Z,3.02
2023-01-08T12:29:33.609Z,2.98
2023-01-08T12:32:24.390Z,3.03
2023-01-08T12:35:00.803Z,3.03
2023-01-08T12:37:41.213Z,3.12
2023-01-08T12:40:17.904Z,3.21
2023-01-08T12:42:59.999Z,3.17
2023-01-08T12:45:32.795Z,3.28
2023-01-08T12:48:08.109Z,3.35
2023-01-08T12:50:50.519Z,3.45
2023-01-08T12:53:32.575Z,3.49
2023-01-08T12:56:09.850Z,3.54
2023-01-08T12:59:08.171Z,3.51
2023-01-08T13:01:48.608Z,3.55
2023-01-08T13:04:17.746Z,3.63
2023-01-08T13:06:55.789Z,3.72
2023-01-08T13:09:28.097Z,3.71
2023-01-08T13:12:00.509Z,3.71
2023-01-08T13:14:29.506Z,3.69
2023-01-08T13:17:06.871Z,3.66
2023-01-08T13:19:43.509Z,3.58
2023-01-08T13:22:26.657Z,3.57
2023-01-08T13:25:12.429Z,3.49
2023-01-08T13:27:41.179Z,3.48
2023-01-08T13:30:40.201Z,3.45
2023-01-08T13:33:41.356Z,3.43
2023-01-08T13:36:21.200Z,3.34
2023-01-08T13:39:07.778Z,3.25
2023-01-08T13:41:40.227Z,3.22
2023-01-08T13:44:22.724Z,3.30
2023-01-08T13:46:56.396Z,3.26
2023-01-08T13:49:33.646Z,3.26
2023-01-08T13:52:02.399Z,3.29
2023-01-08T13:54:37.952Z,3.32
2023-01-08T13:57:18.007Z,3.34
2023-01-08T13:59:53.146Z,3.32
2023-01-08T14:02:29.990Z,3.21
2023-01-08T14:04:59.889Z,3.22
2023-01-08T14:07:29.240Z,3.19
2023-01-08T14:10:10.036Z,3.18
2023-01-08T14:12:40.828Z,3.20
2023-01-08T14:15:14.882Z,3.18
2023-01-08T14:17:45.688Z,3.17
2023-01-08T14:20:14.512Z,3.20
2023-01-08T14:22:44.046Z,3.25
2023-01-08T14:25:20.095Z,3.24
2023-01-08T14:28:02.752Z,3.25
2023-01-08T14:30:31.404Z,3.26
2023-01-08T14:33:01.866Z,3.22
2023-01-08T14:35:35.549Z,3.18
2023-01-08T14:38:05.755Z,3.12
2023-01-08T14:40:40.986Z,3.11
2023-01-08T14:43:14.624Z,3.14
2023-01-08T14:45:49.415Z,3.14
2023-01-08T14:48:26.466Z,3.10
2023-01-08T14:51:05.223Z,3.09
2023-01-08T14:53:37.265Z,3.06
2023-01-08T14:56:08.282Z,3.06
2023-01-08T14:58:42.795Z,3.07
2023-01-08T15:01:19.454Z,3.09
2023-01-08T15:03:49.646Z,3.06
2023-01-08T15:06:27.132Z,3.02
2023-01-08T15:08:56.136Z,3.02
2023-01-08T15:11:29.568Z,3.03
2023-01-08T15:14:00.901Z,3.04
2023-01-08T15:16:32.956Z,3.06
2023-01-08T15:19:08.805Z,3.11
2023-01-08T15:21:38.322Z,3.09
2023-01-08T15:24:09.096Z,3.03
2023-01-08T15:26:43.636Z,2.98
2023-01-08T15:29:23.902Z,3.01
2023-01-08T15:31:52.519Z,2.99
2023-01-08T15:34:21.960Z,2.97
2023-01-08T15:36:50.515Z,3.00
2023-01-08T15:39:18.799Z,2.91
2023-01-08T15:42:05.067Z,2.93
2023-01-08T15:44:34.812Z,2.94
2023-01-08T15:47:03.424Z,3.02
2023-01-08T15:49:32.071Z,3.00
2023-01-08T15:52:00.665Z,2.97
2023-01-08T15:54:29.260Z,2.93
2023-01-08T15:56:57.820Z,2.88
2023-01-08T15:59:26.186Z,2.84
2023-01-08T16:01:55.773Z,2.80
2023-01-08T16:04:24.755Z,2.81
2023-01-08T16:06:53.297Z,2.73
2023-01-08T16:09:21.583Z,2.66
2023-01-08T16:11:50.384Z,2.63
2023-01-08T16:14:18.994Z,2.63
2023-01-08T16:16:47.699Z,2.62
2023-01-08T16:19:17.660Z,2.65
2023-01-08T16:21:48.247Z,2.60
2023-01-08T16:24:16.950Z,2.57
2023-01-08T16:26:45.518Z,2.58
2023-01-08T16:29:14.570Z,2.54
2023-01-08T16:31:47.022Z,2.53
2023-01-08T16:34:17.427Z,2.52
2023-01-08T16:36:46.084Z,2.59
2023-01-08T16:39:14.582Z,2.62
2023-01-08T16:41:43.155Z,2.72
2023-01-08T16:44:20.677Z,2.68
2023-01-08T16:46:49.756Z,2.66
2023-01-08T16:49:19.396Z,2.60
2023-01-08T16:51:48.421Z,2.50
2023-01-08T16:54:17.910Z,2.45
2023-01-08T16:56:46.829Z,2.48
2023-01-08T16:59:23.380Z,2.48
2023-01-08T17:01:52.583Z,2.44
2023-01-08T17:04:22.309Z,2.33
2023-01-08T17:06:50.897Z,2.35
2023-01-08T17:09:19.324Z,2.37
2023-01-08T17:11:48.591Z,2.44
2023-01-08T17:14:17.854Z,2.50
2023-01-08T17:16:47.489Z,2.55
2023-01-08T17:19:17.317Z,2.62
2023-01-08T17:21:48.133Z,2.70
2023-01-08T17:24:16.769Z,2.79
2023-01-08T17:26:45.247Z,2.86
2023-01-08T17:29:13.887Z,2.92
2023-01-08T17:31:42.628Z,2.92
2023-01-08T17:34:14.684Z,2.89
2023-01-08T17:36:43.708Z,2.92
2023-01-08T17:39:14.171Z,2.94
2023-01-08T17:42:00.042Z,2.95
2023-01-08T17:44:30.991Z,2.96
2023-01-08T17:46:59.583Z,3.07
2023-01-08T17:49:28.221Z,3.15
2023-01-08T17:51:57.075Z,3.16
2023-01-08T17:54:27.022Z,3.09
2023-01-08T17:56:55.399Z,3.08
2023-01-08T17:59:24.164Z,3.04
2023-01-08T18:01:54.509Z,2.98
2023-01-08T18:04:23.146Z,2.90
2023-01-08T18:06:51.724Z,2.89
2023-01-08T18:09:20.540Z,2.86
2023-01-08T18:11:50.430Z,2.80
2023-01-08T18:14:19.043Z,2.77
2023-01-08T18:16:49.527Z,2.70
2023-01-08T18:19:19.994Z,2.68
2023-01-08T18:21:49.155Z,2.71
2023-01-08T18:24:17.763Z,2.64
2023-01-08T18:26:46.786Z,2.57
2023-01-08T18:29:16.608Z,2.50
2023-01-08T18:31:46.401Z,2.47
2023-01-08T18:34:15.509Z,2.38
2023-01-08T18:36:44.247Z,2.38
2023-01-08T18:39:13.705Z,2.38
2023-01-08T18:42:01.814Z,2.31
2023-01-08T18:44:31.699Z,2.25
2023-01-08T18:47:00.286Z,2.22
2023-01-08T18:49:28.855Z,2.21
2023-01-08T18:51:57.682Z,2.18
2023-01-08T18:54:26.256Z,2.14
2023-01-08T18:56:54.829Z,2.17
2023-01-08T18:59:24.430Z,2.17
2023-01-08T19:01:54.107Z,2.17
2023-01-08T19:04:22.805Z,2.15
2023-01-08T19:06:51.435Z,2.09
2023-01-08T19:09:20.092Z,2.03
2023-01-08T19:11:48.821Z,2.01
2023-01-08T19:14:17.165Z,2.02
2023-01-08T19:16:51.154Z,2.07
2023-01-08T19:19:21.835Z,2.09
2023-01-08T19:21:50.244Z,2.07
2023-01-08T19:24:18.879Z,2.10
2023-01-08T19:26:47.643Z,2.12
2023-01-08T19:29:15.877Z,2.14
2023-01-08T19:31:44.440Z,2.15
2023-01-08T19:34:13.376Z,2.18
2023-01-08T19:36:43.806Z,2.14
2023-01-08T19:39:12.768Z,2.17
2023-01-08T19:41:58.929Z,2.19
2023-01-08T19:44:27.560Z,2.21
2023-01-08T19:46:55.873Z,2.17
2023-01-08T19:49:26.045Z,2.15
2023-01-08T19:51:55.763Z,2.17
2023-01-08T19:54:25.933Z,2.22
2023-01-08T19:56:54.922Z,2.19
2023-01-08T19:59:24.816Z,2.20
2023-01-08T20:01:53.282Z,2.22
2023-01-08T20:04:22.329Z,2.20
2023-01-08T20:06:52.416Z,2.15
2023-01-08T20:09:22.292Z,2.11
2023-01-08T20:11:50.873Z,2.10
2023-01-08T20:14:20.968Z,2.06
2023-01-08T20:16:50.086Z,2.07
2023-01-08T20:19:18.761Z,2.09
2023-01-08T20:21:47.217Z,2.07
2023-01-08T20:24:15.518Z,2.07
2023-01-08T20:26:46.997Z,2.10
2023-01-08T20:29:17.752Z,2.03
2023-01-08T20:31:46.145Z,1.99
2023-01-08T20:34:17.082Z,2.00
2023-01-08T20:36:46.554Z,2.01
2023-01-08T20:39:17.794Z,2.01
2023-01-08T20:42:00.897Z,2.07
2023-01-08T20:44:32.190Z,2.09
2023-01-08T20:47:01.193Z,2.09
2023-01-08T20:49:29.965Z,2.12
2023-01-08T20:52:00.111Z,2.13
2023-01-08T20:54:30.604Z,2.09
2023-01-08T20:57:01.737Z,2.13
2023-01-08T20:59:31.320Z,2.13
2023-01-08T21:01:59.884Z,2.17
2023-01-08T21:04:28.667Z,2.19
2023-01-08T21:06:57.533Z,2.23
2023-01-08T21:09:26.232Z,2.22
2023-01-08T21:11:54.854Z,2.19
2023-01-08T21:14:25.173Z,2.18
2023-01-08T21:16:53.773Z,2.22
2023-01-08T21:19:22.049Z,2.25
2023-01-08T21:21:50.300Z,2.18
2023-01-08T21:24:20.078Z,2.18
2023-01-08T21:26:48.699Z,2.14
2023-01-08T21:29:19.845Z,2.09
2023-01-08T21:31:49.874Z,2.07
2023-01-08T21:34:18.193Z,2.02
2023-01-08T21:36:46.803Z,2.11
2023-01-08T21:39:15.471Z,2.09
2023-01-08T21:42:01.468Z,2.10
2023-01-08T21:44:47.422Z,2.07
2023-01-08T21:47:19.423Z,2.01
2023-01-08T21:49:48.292Z,2.02
2023-01-08T21:52:34.402Z,1.98
2023-01-08T21:55:03.418Z,2.04
2023-01-08T21:57:31.676Z,2.01
2023-01-08T21:59:59.932Z,2.07
2023-01-08T22:02:29.730Z,2.07
2023-01-08T22:04:58.664Z,1.99
2023-01-08T22:07:27.843Z,1.94
2023-01-08T22:09:56.654Z,1.90
2023-01-08T22:12:26.121Z,1.88
2023-01-08T22:14:55.255Z,1.88
2023-01-08T22:17:25.764Z,1.87
2023-01-08T22:19:57.888Z,1.85
2023-01-08T22:22:26.582Z,1.85
2023-01-08T22:24:55.676Z,1.87
2023-01-08T22:27:24.415Z,1.85
2023-01-08T22:29:52.755Z,1.88
2023-01-08T22:32:21.388Z,1.86
2023-01-08T22:34:50.591Z,1.83
2023-01-08T22:37:21.813Z,1.87
2023-01-08T22:39:50.843Z,1.87
2023-01-08T22:42:19.098Z,1.92
2023-01-08T22:44:49.710Z,1.90
2023-01-08T22:47:18.020Z,1.88
2023-01-08T22:49:46.623Z,1.84
2023-01-08T22:52:15.563Z,1.85
2023-01-08T22:54:45.376Z,1.86
2023-01-08T22:57:14.020Z,1.88
2023-01-08T22:59:42.623Z,1.87
2023-01-08T23:02:11.230Z,1.89
2023-01-08T23:04:39.815Z,1.92
2023-01-08T23:07:08.700Z,1.99
2023-01-08T23:09:37.292Z,2.04
2023-01-08T23:12:07.562Z,2.06
2023-01-08T23:14:35.877Z,2.10
2023-01-08T23:17:04.544Z,2.07
2023-01-08T23:19:33.164Z,2.06
2023-01-08T23:22:01.573Z,2.12
2023-01-08T23:24:30.974Z,2.17
2023-01-08T23:26:59.768Z,2.09
2023-01-08T23:29:32.050Z,2.02
2023-01-08T23:32:00.800Z,1.97
2023-01-08T23:34:29.463Z,1.96
2023-01-08T23:36:57.862Z,1.92
2023-01-08T23:39:26.733Z,1.93
2023-01-08T23:41:56.194Z,1.88
2023-01-08T23:44:24.844Z,1.91
2023-01-08T23:46:54.842Z,1.89
2023-01-08T23:49:23.428Z,1.91
2023-01-08T23:51:51.763Z,1.85
2023-01-08T23:54:20.471Z,1.83
2023-01-08T23:56:49.510Z,1.87
2023-01-08T23:59:18.057Z,1.89
